createdAt,value
2022-09-18T00:00:42.482Z,100917.28
2022-09-18T00:03:14.838Z,100923.44
2022-09-18T00:05:46.358Z,100926.00
2022-09-18T00:08:17.377Z,100934.78
2022-09-18T00:10:52.278Z,100933.47
2022-09-18T00:13:23.026Z,100936.97
2022-09-18T00:15:59.944Z,100947.03
2022-09-18T00:18:31.090Z,100961.81
2022-09-18T00:21:15.671Z,100956.53
2022-09-18T00:23:47.593Z,100965.00
2022-09-18T00:26:20.863Z,100967.28
2022-09-18T00:28:51.919Z,100963.88
2022-09-18T00:31:28.479Z,100967.66
2022-09-18T00:34:01.275Z,100972.16
2022-09-18T00:36:33.193Z,100968.88
2022-09-18T00:39:05.727Z,100970.50
2022-09-18T00:41:42.720Z,100979.44
2022-09-18T00:44:38.302Z,100980.94
2022-09-18T00:47:15.240Z,100988.16
2022-09-18T00:50:11.018Z,100989.59
2022-09-18T00:52:57.231Z,100997.03
2022-09-18T00:55:38.415Z,101001.31
2022-09-18T00:58:09.414Z,101000.75
2022-09-18T01:00:40.946Z,100998.59
2022-09-18T01:03:12.049Z,101004.94
2022-09-18T01:05:42.902Z,101018.75
2022-09-18T01:08:41.873Z,101030.19
2022-09-18T01:11:42.317Z,101035.72
2022-09-18T01:14:31.829Z,101027.00
2022-09-18T01:17:39.977Z,101028.13
2022-09-18T01:20:40.427Z,101030.72
2022-09-18T01:23:22.081Z,101035.28
2022-09-18T01:26:04.821Z,101035.59
2022-09-18T01:29:01.651Z,101029.47
2022-09-18T01:31:37.462Z,101034.66
2022-09-18T01:34:27.076Z,101028.03
2022-09-18T01:37:06.020Z,101035.00
2022-09-18T01:39:57.104Z,101044.41
2022-09-18T01:42:31.936Z,101044.59
2022-09-18T01:45:08.352Z,101034.84
2022-09-18T01:47:51.103Z,101035.28
2022-09-18T01:50:24.535Z,101037.63
2022-09-18T01:53:24.330Z,101029.97
2022-09-18T01:56:16.845Z,101030.75
2022-09-18T01:58:49.848Z,101031.50
2022-09-18T02:01:25.736Z,101037.81
2022-09-18T02:04:04.325Z,101035.59
2022-09-18T02:06:41.246Z,101036.09
2022-09-18T02:09:14.438Z,101041.94
2022-09-18T02:11:49.662Z,101027.81
2022-09-18T02:14:31.185Z,101040.81
2022-09-18T02:17:42.080Z,101027.72
2022-09-18T02:20:22.361Z,101030.47
2022-09-18T02:22:59.524Z,101022.09
2022-09-18T02:26:00.391Z,101017.03
2022-09-18T02:28:34.769Z,101032.53
2022-09-18T02:31:06.135Z,101027.88
2022-09-18T02:33:39.499Z,101025.59
2022-09-18T02:36:25.708Z,101027.88
2022-09-18T02:39:12.314Z,101022.53
2022-09-18T02:42:07.630Z,101022.72
2022-09-18T02:45:15.307Z,101025.97
2022-09-18T02:48:11.722Z,101030.38
2022-09-18T02:51:04.503Z,101021.06
2022-09-18T02:53:52.629Z,101029.25
2022-09-18T02:56:35.346Z,101031.22
2022-09-18T02:59:25.496Z,101028.97
2022-09-18T03:02:01.795Z,101038.78
2022-09-18T03:04:35.644Z,101027.22
2022-09-18T03:07:08.970Z,101033.25
2022-09-18T03:09:49.192Z,101034.38
2022-09-18T03:12:20.003Z,101026.09
2022-09-18T03:14:52.740Z,101031.03
2022-09-18T03:17:23.950Z,101031.03
2022-09-18T03:19:55.382Z,101032.34
2022-09-18T03:22:26.475Z,101023.25
2022-09-18T03:24:57.044Z,101023.75
2022-09-18T03:27:28.816Z,101012.22
2022-09-18T03:30:00.153Z,101013.63
2022-09-18T03:32:35.121Z,101011.16
2022-09-18T03:35:09.469Z,101009.44
2022-09-18T03:37:40.794Z,101016.28
2022-09-18T03:40:14.109Z,101010.25
2022-09-18T03:42:48.967Z,100997.28
2022-09-18T03:45:20.453Z,100998.06
2022-09-18T03:47:51.525Z,101011.09
2022-09-18T03:50:23.222Z,100996.94
2022-09-18T03:52:54.326Z,100993.06
2022-09-18T03:55:43.329Z,100985.09
2022-09-18T03:58:32.319Z,100976.81
2022-09-18T04:01:10.040Z,100980.06
2022-09-18T04:04:00.827Z,100978.13
2022-09-18T04:06:50.303Z,100977.78
2022-09-18T04:09:41.316Z,100979.25
2022-09-18T04:12:12.921Z,100972.59
2022-09-18T04:14:46.885Z,100948.56
2022-09-18T04:17:18.425Z,100953.91
2022-09-18T04:19:53.462Z,100957.66
2022-09-18T04:22:25.618Z,100964.94
2022-09-18T04:24:56.550Z,100963.66
2022-09-18T04:27:27.479Z,100959.94
2022-09-18T04:29:58.621Z,100955.53
2022-09-18T04:32:29.798Z,100939.31
2022-09-18T04:35:00.947Z,100928.56
2022-09-18T04:37:32.310Z,100932.88
2022-09-18T04:40:05.455Z,100938.41
2022-09-18T04:42:37.951Z,100938.56
2022-09-18T04:45:11.436Z,100941.03
2022-09-18T04:47:43.954Z,100944.81
2022-09-18T04:50:14.913Z,100937.34
2022-09-18T04:53:05.570Z,100929.06
2022-09-18T04:55:37.675Z,100918.94
2022-09-18T04:58:08.749Z,100914.38
2022-09-18T05:00:41.010Z,100900.75
2022-09-18T05:03:11.917Z,100904.47
2022-09-18T05:05:45.031Z,100891.63
2022-09-18T05:08:16.858Z,100888.53
2022-09-18T05:10:48.283Z,100894.69
2022-09-18T05:13:21.498Z,100892.59
2022-09-18T05:16:02.460Z,100893.09
2022-09-18T05:18:34.803Z,100885.91
2022-09-18T05:21:08.151Z,100871.44
2022-09-18T05:23:40.561Z,100858.94
2022-09-18T05:26:14.879Z,100846.97
2022-09-18T05:28:45.696Z,100839.50
2022-09-18T05:31:16.595Z,100841.94
2022-09-18T05:33:49.917Z,100840.00
2022-09-18T05:36:20.977Z,100832.03
2022-09-18T05:38:54.313Z,100827.31
2022-09-18T05:41:26.691Z,100819.38
2022-09-18T05:43:57.660Z,100821.00
2022-09-18T05:46:28.690Z,100816.75
2022-09-18T05:49:04.063Z,100809.09
2022-09-18T05:51:34.838Z,100806.19
2022-09-18T05:54:05.789Z,100796.25
2022-09-18T05:56:46.469Z,100797.88
2022-09-18T05:59:17.797Z,100794.63
2022-09-18T06:01:51.312Z,100785.06
2022-09-18T06:04:30.814Z,100785.06
2022-09-18T06:07:04.791Z,100784.41
2022-09-18T06:09:35.586Z,100779.88
2022-09-18T06:12:06.347Z,100781.50
2022-09-18T06:14:40.060Z,100773.22
2022-09-18T06:17:10.884Z,100768.81
2022-09-18T06:19:41.778Z,100772.59
2022-09-18T06:22:13.536Z,100779.09
2022-09-18T06:24:45.955Z,100777.13
2022-09-18T06:27:22.564Z,100764.16
2022-09-18T06:29:53.900Z,100765.94
2022-09-18T06:32:35.485Z,100752.31
2022-09-18T06:35:07.072Z,100746.94
2022-09-18T06:37:38.835Z,100746.94
2022-09-18T06:40:21.699Z,100739.81
2022-09-18T06:43:10.650Z,100746.63
2022-09-18T06:46:07.345Z,100735.59
2022-09-18T06:48:43.704Z,100731.06
2022-09-18T06:51:15.411Z,100731.84
2022-09-18T06:54:07.223Z,100712.69
2022-09-18T06:56:38.097Z,100721.44
2022-09-18T06:59:12.977Z,100715.44
2022-09-18T07:01:44.594Z,100711.91
2022-09-18T07:04:23.906Z,100714.00
2022-09-18T07:06:54.937Z,100715.00
2022-09-18T07:09:25.896Z,100709.28
2022-09-18T07:11:56.728Z,100709.47
2022-09-18T07:14:36.532Z,100710.91
2022-09-18T07:17:19.156Z,100706.03
2022-09-18T07:19:52.767Z,100703.47
2022-09-18T07:22:27.253Z,100695.19
2022-09-18T07:24:58.297Z,100692.09
2022-09-18T07:27:29.182Z,100688.53
2022-09-18T07:30:00.090Z,100695.34
2022-09-18T07:32:31.580Z,100684.28
2022-09-18T07:35:03.705Z,100687.56
2022-09-18T07:37:36.217Z,100691.44
2022-09-18T07:40:33.714Z,100695.84
2022-09-18T07:43:12.957Z,100689.19
2022-09-18T07:45:53.765Z,100684.47
2022-09-18T07:48:27.221Z,100677.50
2022-09-18T07:51:01.775Z,100680.25
2022-09-18T07:53:35.172Z,100683.22
2022-09-18T07:56:10.953Z,100681.06
2022-09-18T07:58:42.902Z,100685.97
2022-09-18T08:01:18.091Z,100676.03
2022-09-18T08:03:53.223Z,100667.13
2022-09-18T08:06:39.382Z,100651.72
2022-09-18T08:09:16.860Z,100647.00
2022-09-18T08:11:56.889Z,100632.38
2022-09-18T08:14:42.057Z,100626.69
2022-09-18T08:17:48.540Z,100636.44
2022-09-18T08:20:33.436Z,100632.88
2022-09-18T08:23:33.888Z,100628.66
2022-09-18T08:26:07.225Z,100623.94
2022-09-18T08:28:38.808Z,100631.91
2022-09-18T08:31:10.561Z,100624.91
2022-09-18T08:33:43.248Z,100615.19
2022-09-18T08:36:14.869Z,100617.59
2022-09-18T08:38:58.523Z,100621.84
2022-09-18T08:41:53.233Z,100607.69
2022-09-18T08:44:30.806Z,100602.97
2022-09-18T08:47:13.340Z,100594.38
2022-09-18T08:49:56.404Z,100596.31
2022-09-18T08:53:23.531Z,100600.88
2022-09-18T08:56:31.817Z,100598.13
2022-09-18T08:59:46.669Z,100595.81
2022-09-18T09:02:40.504Z,100600.06
2022-09-18T09:05:37.580Z,100601.69
2022-09-18T09:08:45.711Z,100599.25
2022-09-18T09:11:49.780Z,100585.63
2022-09-18T09:14:56.712Z,100586.41
2022-09-18T09:17:55.267Z,100603.47
2022-09-18T09:20:53.430Z,100596.16
2022-09-18T09:24:00.758Z,100603.97
2022-09-18T09:26:55.099Z,100610.81
2022-09-18T09:30:20.054Z,100606.41
2022-09-18T09:33:33.863Z,100625.56
2022-09-18T09:36:19.329Z,100629.63
2022-09-18T09:38:56.722Z,100635.31
2022-09-18T09:41:58.990Z,100630.78
2022-09-18T09:44:41.279Z,100636.09
2022-09-18T09:47:49.086Z,100642.94
2022-09-18T09:50:36.311Z,100636.28
2022-09-18T09:53:14.590Z,100644.38
2022-09-18T09:55:59.375Z,100633.69
2022-09-18T09:58:48.917Z,100639.84
2022-09-18T10:02:00.556Z,100639.06
2022-09-18T10:04:50.110Z,100637.09
2022-09-18T10:07:47.128Z,100647.00
2022-09-18T10:10:50.462Z,100643.75
2022-09-18T10:13:26.298Z,100645.72
2022-09-18T10:16:13.683Z,100650.41
2022-09-18T10:18:53.445Z,100658.03
2022-09-18T10:21:29.330Z,100652.69
2022-09-18T10:24:18.001Z,100652.03
2022-09-18T10:26:55.374Z,100653.50
2022-09-18T10:29:26.927Z,100663.06
2022-09-18T10:32:05.206Z,100657.88
2022-09-18T10:34:51.547Z,100672.84
2022-09-18T10:37:31.333Z,100677.88
2022-09-18T10:40:10.439Z,100669.44
2022-09-18T10:42:42.316Z,100675.09
2022-09-18T10:45:32.600Z,100677.38
2022-09-18T10:48:27.699Z,100680.94
2022-09-18T10:51:07.453Z,100682.25
2022-09-18T10:53:45.319Z,100690.38
2022-09-18T10:56:24.270Z,100691.81
2022-09-18T10:58:58.106Z,100689.69
2022-09-18T11:01:29.431Z,100698.16
2022-09-18T11:04:05.388Z,100696.84
2022-09-18T11:06:47.232Z,100688.25
2022-09-18T11:09:36.449Z,100692.47
2022-09-18T11:12:08.737Z,100698.16
2022-09-18T11:14:49.730Z,100693.44
2022-09-18T11:17:42.816Z,100693.78
2022-09-18T11:20:43.810Z,100701.41
2022-09-18T11:23:32.435Z,100698.00
2022-09-18T11:26:23.428Z,100705.44
2022-09-18T11:29:24.621Z,100713.41
2022-09-18T11:31:57.526Z,100713.91
2022-09-18T11:34:36.059Z,100717.78
2022-09-18T11:37:16.991Z,100718.91
2022-09-18T11:39:58.647Z,100727.66
2022-09-18T11:42:30.518Z,100737.59
2022-09-18T11:45:56.134Z,100743.59
2022-09-18T11:49:04.293Z,100747.63
2022-09-18T11:52:04.607Z,100771.16
2022-09-18T11:55:03.173Z,100770.19
2022-09-18T11:57:41.592Z,100776.03
2022-09-18T12:00:25.388Z,100782.06
2022-09-18T12:03:18.888Z,100789.34
2022-09-18T12:06:01.715Z,100796.31
2022-09-18T12:09:00.288Z,100804.28
2022-09-18T12:11:58.314Z,100804.91
2022-09-18T12:14:39.324Z,100807.66
2022-09-18T12:17:44.910Z,100817.56
2022-09-18T12:20:32.426Z,100814.81
2022-09-18T12:23:06.084Z,100813.50
2022-09-18T12:25:51.964Z,100810.44
2022-09-18T12:29:18.616Z,100816.09
2022-09-18T12:32:07.059Z,100822.94
2022-09-18T12:34:52.615Z,100842.22
2022-09-18T12:37:48.281Z,100867.66
2022-09-18T12:40:38.972Z,100903.28
2022-09-18T12:43:28.111Z,100901.00
2022-09-18T12:46:07.385Z,100921.22
2022-09-18T12:48:59.239Z,100927.97
2022-09-18T12:51:32.124Z,100947.59
2022-09-18T12:54:23.154Z,100945.69
2022-09-18T12:57:25.309Z,100970.72
2022-09-18T13:00:15.433Z,100982.75
2022-09-18T13:02:51.303Z,100985.22
2022-09-18T13:05:33.747Z,100998.69
2022-09-18T13:08:31.606Z,101009.22
2022-09-18T13:11:16.088Z,101018.31
2022-09-18T13:13:55.573Z,101020.25
2022-09-18T13:16:50.517Z,101017.63
2022-09-18T13:19:24.932Z,101010.16
2022-09-18T13:21:56.370Z,101012.97
2022-09-18T13:24:32.666Z,101009.34
2022-09-18T13:27:08.083Z,101007.59
2022-09-18T13:30:00.273Z,101021.41
2022-09-18T13:32:37.917Z,101029.88
2022-09-18T13:35:17.612Z,101031.31
2022-09-18T13:37:49.433Z,101045.50
2022-09-18T13:40:33.808Z,101050.81
2022-09-18T13:43:30.897Z,101061.16
2022-09-18T13:46:11.369Z,101059.63
2022-09-18T13:48:51.639Z,101051.16
2022-09-18T13:51:31.079Z,101043.31
2022-09-18T13:54:23.054Z,101042.47
2022-09-18T13:57:17.781Z,101031.88
2022-09-18T13:59:58.439Z,101033.78
2022-09-18T14:02:36.255Z,101030.34
2022-09-18T14:05:33.179Z,101036.22
2022-09-18T14:08:21.948Z,101029.59
2022-09-18T14:11:13.777Z,101035.53
2022-09-18T14:13:45.395Z,101039.34
2022-09-18T14:16:16.215Z,101048.38
2022-09-18T14:18:47.052Z,101032.41
2022-09-18T14:21:20.932Z,101044.28
2022-09-18T14:23:52.504Z,101044.38
2022-09-18T14:26:37.662Z,101036.50
2022-09-18T14:29:20.894Z,101039.88
2022-09-18T14:31:57.454Z,101028.00
2022-09-18T14:34:33.373Z,101033.94
2022-09-18T14:37:28.588Z,101041.41
2022-09-18T14:40:01.370Z,101039.75
2022-09-18T14:42:38.102Z,101041.41
2022-09-18T14:45:24.075Z,101035.88
2022-09-18T14:47:55.540Z,101033.94
2022-09-18T14:50:40.337Z,101033.13
2022-09-18T14:53:32.112Z,101042.19
2022-09-18T14:56:11.172Z,101042.09
2022-09-18T14:58:46.311Z,101034.25
2022-09-18T15:01:27.101Z,101037.50
2022-09-18T15:04:00.942Z,101047.09
2022-09-18T15:06:40.552Z,101049.03
2022-09-18T15:09:13.884Z,101052.81
2022-09-18T15:12:01.940Z,101061.09
2022-09-18T15:14:46.807Z,101052.00
2022-09-18T15:17:24.353Z,101051.69
2022-09-18T15:20:19.291Z,101050.03
2022-09-18T15:22:51.543Z,101043.59
2022-09-18T15:25:35.855Z,101040.75
2022-09-18T15:28:09.676Z,101041.25
2022-09-18T15:30:41.764Z,101035.22
2022-09-18T15:33:23.945Z,101046.41
2022-09-18T15:35:56.136Z,101042.19
2022-09-18T15:38:34.020Z,101050.38
2022-09-18T15:41:44.349Z,101051.94
2022-09-18T15:44:38.577Z,101058.66
2022-09-18T15:47:33.812Z,101057.38
2022-09-18T15:50:26.556Z,101060.22
2022-09-18T15:53:00.979Z,101052.28
2022-09-18T15:55:54.013Z,101047.00
2022-09-18T15:58:43.962Z,101047.56
2022-09-18T16:01:21.328Z,101048.38
2022-09-18T16:04:06.657Z,101053.25
2022-09-18T16:06:52.704Z,101048.66
2022-09-18T16:09:34.934Z,101043.13
2022-09-18T16:12:30.103Z,101044.00
2022-09-18T16:15:22.906Z,101034.84
2022-09-18T16:18:07.345Z,101036.81
2022-09-18T16:20:52.487Z,101042.56
2022-09-18T16:23:37.251Z,101039.56
2022-09-18T16:26:18.083Z,101029.88
2022-09-18T16:28:50.892Z,101041.00
2022-09-18T16:31:27.549Z,101033.22
2022-09-18T16:34:07.325Z,101039.56
2022-09-18T16:36:44.344Z,101039.69
2022-09-18T16:39:17.376Z,101050.19
2022-09-18T16:41:49.600Z,101050.38
2022-09-18T16:44:21.603Z,101047.75
2022-09-18T16:47:04.448Z,101048.28
2022-09-18T16:49:41.016Z,101047.94
2022-09-18T16:52:13.043Z,101047.44
2022-09-18T16:54:43.952Z,101044.16
2022-09-18T16:57:21.021Z,101047.56
2022-09-18T16:59:54.172Z,101055.53
2022-09-18T17:02:26.183Z,101045.28
2022-09-18T17:04:57.685Z,101046.41
2022-09-18T17:07:28.641Z,101046.22
2022-09-18T17:10:00.914Z,101042.66
2022-09-18T17:12:31.970Z,101043.19
2022-09-18T17:15:02.703Z,101045.63
2022-09-18T17:17:33.863Z,101036.53
2022-09-18T17:20:05.894Z,101038.97
2022-09-18T17:22:37.011Z,101038.16
2022-09-18T17:25:08.091Z,101032.44
2022-09-18T17:27:43.542Z,101031.31
2022-09-18T17:30:15.395Z,101024.69
2022-09-18T17:32:46.317Z,101026.00
2022-09-18T17:35:18.491Z,101021.13
2022-09-18T17:37:49.460Z,101027.13
2022-09-18T17:40:22.103Z,101022.09
2022-09-18T17:42:53.104Z,101020.00
2022-09-18T17:45:23.854Z,101016.91
2022-09-18T17:47:57.948Z,101008.97
2022-09-18T17:50:28.878Z,101017.25
2022-09-18T17:52:59.956Z,101021.13
2022-09-18T17:55:31.176Z,101015.28
2022-09-18T17:58:02.184Z,101018.38
2022-09-18T18:00:33.140Z,101019.16
2022-09-18T18:03:04.204Z,101020.47
2022-09-18T18:05:35.154Z,101005.69
2022-09-18T18:08:06.143Z,101001.00
2022-09-18T18:10:39.508Z,101003.44
2022-09-18T18:13:10.438Z,100996.78
2022-09-18T18:15:41.277Z,100998.22
2022-09-18T18:18:12.087Z,100996.50
2022-09-18T18:20:43.214Z,100988.84
2022-09-18T18:23:14.416Z,100995.28
2022-09-18T18:25:45.353Z,100994.97
2022-09-18T18:28:16.314Z,100994.44
2022-09-18T18:30:50.335Z,100990.38
2022-09-18T18:33:21.098Z,100986.31
2022-09-18T18:35:52.124Z,100989.06
2022-09-18T18:38:23.795Z,100978.84
2022-09-18T18:40:54.805Z,100974.47
2022-09-18T18:43:26.606Z,100973.34
2022-09-18T18:45:59.189Z,100967.81
2022-09-18T18:48:29.950Z,100955.47
2022-09-18T18:51:02.228Z,100955.16
2022-09-18T18:53:33.902Z,100953.53
2022-09-18T18:56:10.516Z,100941.69
2022-09-18T18:58:41.775Z,100943.31
2022-09-18T19:01:15.176Z,100940.88
2022-09-18T19:03:53.987Z,100944.97
2022-09-18T19:06:29.131Z,100945.25
2022-09-18T19:09:04.756Z,100938.63
2022-09-18T19:11:37.101Z,100932.59
2022-09-18T19:14:08.278Z,100941.69
2022-09-18T19:16:38.966Z,100935.84
2022-09-18T19:19:12.231Z,100932.91
2022-09-18T19:21:43.562Z,100932.31
2022-09-18T19:24:15.485Z,100929.84
2022-09-18T19:26:46.521Z,100932.59
2022-09-18T19:29:19.990Z,100925.94
2022-09-18T19:31:51.791Z,100919.94
2022-09-18T19:34:24.975Z,100920.44
2022-09-18T19:36:56.309Z,100916.06
2022-09-18T19:39:27.200Z,100909.75
2022-09-18T19:42:04.305Z,100908.91
2022-09-18T19:44:43.265Z,100904.53
2022-09-18T19:47:29.651Z,100908.91
2022-09-18T19:50:02.447Z,100909.75
2022-09-18T19:52:33.448Z,100904.22
2022-09-18T19:55:04.213Z,100900.63
2022-09-18T19:57:35.254Z,100910.25
2022-09-18T20:00:08.153Z,100897.88
2022-09-18T20:02:42.791Z,100908.91
2022-09-18T20:05:13.502Z,100899.66
2022-09-18T20:07:44.953Z,100908.09
2022-09-18T20:10:17.555Z,100901.78
2022-09-18T20:12:48.742Z,100907.59
2022-09-18T20:15:19.557Z,100897.41
2022-09-18T20:17:50.350Z,100906.78
2022-09-18T20:20:21.232Z,100910.53
2022-09-18T20:22:56.768Z,100909.22
2022-09-18T20:25:28.022Z,100904.84
2022-09-18T20:27:58.664Z,100906.47
2022-09-18T20:30:29.481Z,100901.78
2022-09-18T20:33:00.344Z,100905.66
2022-09-18T20:35:31.129Z,100905.66
2022-09-18T20:38:05.954Z,100907.59
2022-09-18T20:40:37.272Z,100912.59
2022-09-18T20:43:09.513Z,100911.47
2022-09-18T20:45:40.351Z,100904.03
2022-09-18T20:48:11.602Z,100909.56
2022-09-18T20:50:42.666Z,100905.66
2022-09-18T20:53:13.535Z,100915.06
2022-09-18T20:55:44.351Z,100917.81
2022-09-18T20:58:17.342Z,100921.69
2022-09-18T21:00:49.602Z,100922.22
2022-09-18T21:03:22.819Z,100924.97
2022-09-18T21:06:07.614Z,100918.94
2022-09-18T21:08:47.148Z,100926.59
2022-09-18T21:11:30.225Z,100920.56
2022-09-18T21:14:04.057Z,100924.13
2022-09-18T21:16:37.923Z,100922.50
2022-09-18T21:19:09.210Z,100920.56
2022-09-18T21:21:40.373Z,100923.63
2022-09-18T21:24:12.345Z,100915.06
2022-09-18T21:26:48.622Z,100920.88
2022-09-18T21:29:23.507Z,100917.31
2022-09-18T21:32:02.693Z,100923.13
2022-09-18T21:34:36.134Z,100923.94
2022-09-18T21:37:10.853Z,100912.94
2022-09-18T21:39:42.065Z,100914.06
2022-09-18T21:42:13.095Z,100915.69
2022-09-18T21:44:43.982Z,100914.06
2022-09-18T21:47:15.821Z,100915.16
2022-09-18T21:49:46.734Z,100926.53
2022-09-18T21:52:17.756Z,100926.53
2022-09-18T21:54:50.235Z,100930.59
2022-09-18T21:57:21.541Z,100929.28
2022-09-18T21:59:52.618Z,100938.34
2022-09-18T22:02:24.700Z,100939.97
2022-09-18T22:04:56.878Z,100938.84
2022-09-18T22:07:27.747Z,100944.88
2022-09-18T22:09:58.442Z,100948.56
2022-09-18T22:12:29.371Z,100936.72
2022-09-18T22:15:00.435Z,100944.97
2022-09-18T22:17:31.453Z,100948.25
2022-09-18T22:20:02.259Z,100932.31
2022-09-18T22:27:52.251Z,100948.25
2022-09-18T22:30:23.497Z,100952.03
2022-09-18T22:32:54.174Z,100952.31
2022-09-18T22:35:24.913Z,100950.50
2022-09-18T22:37:56.220Z,100954.56
2022-09-18T22:40:26.740Z,100961.00
2022-09-18T22:42:58.675Z,100966.53
2022-09-18T22:45:29.374Z,100968.47
2022-09-18T22:48:00.140Z,100972.16
2022-09-18T22:50:31.124Z,100976.16
2022-09-18T22:53:01.990Z,100971.25
2022-09-18T22:55:34.090Z,100976.75
2022-09-18T22:58:09.017Z,100973.06
2022-09-18T23:00:39.919Z,100975.13
2022-09-18T23:03:10.874Z,100972.88
2022-09-18T23:05:42.660Z,100983.91
2022-09-18T23:08:14.056Z,100983.59
2022-09-18T23:10:45.163Z,100982.59
2022-09-18T23:13:16.051Z,100990.25
2022-09-18T23:15:46.965Z,100994.81
2022-09-18T23:18:18.079Z,100996.75
2022-09-18T23:20:49.084Z,101000.03
2022-09-18T23:23:19.946Z,100990.63
2022-09-18T23:25:50.764Z,100993.09
2022-09-18T23:28:21.570Z,100993.56
2022-09-18T23:30:52.304Z,100998.59
2022-09-18T23:33:22.870Z,101001.38
2022-09-18T23:35:54.196Z,101012.06
2022-09-18T23:38:24.666Z,101011.22
2022-09-18T23:41:04.214Z,101009.63
2022-09-18T23:43:35.519Z,101014.81
2022-09-18T23:46:06.549Z,101022.25
2022-09-18T23:48:37.351Z,101027.78
2022-09-18T23:51:08.159Z,101034.13
2022-09-18T23:53:39.019Z,101040.44
2022-09-18T23:56:15.123Z,101041.56
2022-09-18T23:58:47.579Z,101038.00
